Doyle, TN

5:19 AM CDT on October 01, 2014 (GMT -0500)
Sugar Pea Farm | Change Station
CLOSE
Current Station
Personal Weather Station
Location: Doyle, TN
Elevation: 925 ft
Nearby Weather Stations

Elev 925 ft 35.86 °N, 85.48 °W | Updated 9 seconds ago

Clear
Clear
52.2 °F
Feels Like 52.2 °F
N
0.0
Wind Variable Wind from NNW
Gusts 0.0 mph

Today
High -- | Low -- °F
--% Chance of Precip.
Yesterday
High -- | Low -- °F
Precip. -- in
6:37 AM 6:25 PM
Waxing Crescent, 46% visible
Pressure 29.95 in
Visibility 0.5 miles
Clouds Mostly Cloudy 100 ft
Dew Point 46 °F
Humidity 78%
Rainfall 0.00 in
Snow Depth Not available.
UV 0 out of 12
Pollen 5.00 out of 12
Air Quality Not available.
Flu Activity Not available.
METAR KSRB 300755Z AUTO 00000KT 1/2SM BKN001 12/12 A2995 RMK

More Conditions Fewer Conditions

Pressure 29.95 in
Visibility 0.5 miles
Clouds Mostly Cloudy 100 ft
Dew Point 46 °F
Humidity 78%
Rainfall 0.00 in
Snow Depth Not available.
UV 0 out of 12
Pollen 5.00 out of 12
Air Quality Not available.
Flu Activity Not available.
METAR KSRB 300755Z AUTO 00000KT 1/2SM BKN001 12/12 A2995 RMK

More Conditions Fewer Conditions

10-Day Weather Forecast

Almanac

Astronomy

Oct. 01, 2014 Rise Set
Actual Time 6:37 AM CDT 6:25 PM CDT
Civil Twilight 6:11 AM CDT 6:51 PM CDT
Nautical Twilight 5:41 AM CDT 7:20 PM CDT
Astronomical Twilight 5:11 AM CDT 7:50 PM CDT
Moon 1:29 PM CDT No Moon Set
Length of Visible Light 12h 39m
Length of Day
11h 48m
Tomorrow will be 2m 14s shorter.
Waxing Crescent, 46% of the Moon is Illuminated
Today
Waxing Crescent
Oct 1
First Quarter
Oct 8
Full
Oct 15
Last Quarter
Oct 23
New

Today's Extremes

State Highs State Lows

Community

WunderPhotos

Upload Photos

1,757,905 photos uploaded!

WunderBlogs® & News

Nearby

Snow Depth

Station Depth Elevation
No new snow has been reported.

Earthquake Activity

City Distance Mag. Time & Date
No recent earthquake activity has been reported nearby.
Minimum magnitude displayed is 2.5.

Coastal Water Temperatures

Place Temperature
No Stations Reporting

Nearby Weather Stations